QTR944 OTHH-WSSS
Flight info
| Callsign | QTR944 |
|---|---|
| Flight time | N/A |
| Altitude | 35000 |
| Route | KUPRO N300 NOLSU P307 TONVO/N0495F370 P307 PURNI/N0489F390 P307 PARAR N571 BIKEN/N0485F410 N571 GUNIP R467 VKL A464 ARAMA LELIB3B |
| Aircraft | A359/H-SDE2E3GHIJ3J4J5LM1ORWXY/LB1D1 |
Departure
| Time | 2026-05-08 04:56 |
|---|---|
| Airport | Hamad International Airport (OTHH) |
Arrival
| Time | N/A |
|---|---|
| Airport | Singapore Changi Airport (WSSS) |
| Time | Latitude | Longitude | Altitude | Speed | Heading |
|---|---|---|---|---|---|
| 2026-05-08 04:38 | 25.26400 | 51.61136 | 28 ft | 0 kts | 72° |
| 2026-05-08 04:48 | 25.26399 | 51.61132 | 28 ft | 3 kts | 72° |
| 2026-05-08 04:49 | 25.26391 | 51.61104 | 27 ft | 4 kts | 72° |
| 2026-05-08 04:49 | 25.26384 | 51.61080 | 26 ft | 4 kts | 76° |
| 2026-05-08 04:49 | 25.26381 | 51.61054 | 26 ft | 4 kts | 106° |
| 2026-05-08 04:49 | 25.26391 | 51.61032 | 25 ft | 4 kts | 135° |
| 2026-05-08 04:50 | 25.26412 | 51.61014 | 27 ft | 4 kts | 151° |
| 2026-05-08 04:50 | 25.26436 | 51.61001 | 26 ft | 4 kts | 158° |
| 2026-05-08 04:50 | 25.26448 | 51.60995 | 26 ft | 0 kts | 158° |
| 2026-05-08 04:53 | 25.26428 | 51.61004 | 28 ft | 8 kts | 158° |
| 2026-05-08 04:53 | 25.26343 | 51.61042 | 28 ft | 19 kts | 158° |
| 2026-05-08 04:53 | 25.26221 | 51.61028 | 28 ft | 21 kts | 236° |
| 2026-05-08 04:53 | 25.26159 | 51.60862 | 28 ft | 26 kts | 248° |
| 2026-05-08 04:54 | 25.26086 | 51.60730 | 28 ft | 11 kts | 197° |
| 2026-05-08 04:54 | 25.26009 | 51.60754 | 28 ft | 14 kts | 157° |
| 2026-05-08 04:54 | 25.25887 | 51.60810 | 28 ft | 23 kts | 158° |
| 2026-05-08 04:54 | 25.25760 | 51.60770 | 28 ft | 24 kts | 246° |
| 2026-05-08 04:55 | 25.25697 | 51.60586 | 28 ft | 28 kts | 255° |
| 2026-05-08 04:55 | 25.25756 | 51.60444 | 29 ft | 0 kts | 339° |
| 2026-05-08 04:55 | 25.25856 | 51.60400 | 30 ft | 44 kts | 339° |
| 2026-05-08 04:56 | 25.26334 | 51.60191 | 29 ft | 102 kts | 338° |
| 2026-05-08 04:56 | 25.27160 | 51.59829 | 28 ft | 152 kts | 339° |
| 2026-05-08 04:56 | 25.28227 | 51.59342 | 384 ft | 167 kts | 337° |
| 2026-05-08 04:56 | 25.29266 | 51.58857 | 1113 ft | 163 kts | 338° |
| 2026-05-08 04:57 | 25.30351 | 51.58350 | 1443 ft | 177 kts | 339° |
| 2026-05-08 04:57 | 25.31535 | 51.57783 | 1696 ft | 192 kts | 339° |
| 2026-05-08 04:57 | 25.32813 | 51.57259 | 2042 ft | 200 kts | 349° |
| 2026-05-08 04:57 | 25.34203 | 51.57450 | 2290 ft | 218 kts | 22° |
| 2026-05-08 04:58 | 25.35422 | 51.58581 | 2530 ft | 245 kts | 52° |
| 2026-05-08 04:58 | 25.36017 | 51.60404 | 3015 ft | 261 kts | 79° |
| 2026-05-08 04:58 | 25.35992 | 51.62450 | 3586 ft | 270 kts | 91° |
| 2026-05-08 04:58 | 25.35679 | 51.64522 | 4158 ft | 278 kts | 98° |
| 2026-05-08 04:59 | 25.35267 | 51.66643 | 4730 ft | 283 kts | 101° |
| 2026-05-08 04:59 | 25.34822 | 51.68768 | 5383 ft | 284 kts | 103° |
| 2026-05-08 04:59 | 25.34346 | 51.70893 | 6005 ft | 286 kts | 104° |
| 2026-05-08 04:59 | 25.33834 | 51.73023 | 6585 ft | 288 kts | 105° |
| 2026-05-08 05:00 | 25.33321 | 51.75164 | 7211 ft | 289 kts | 105° |
| 2026-05-08 05:00 | 25.32810 | 51.77318 | 7854 ft | 290 kts | 105° |
| 2026-05-08 05:00 | 25.32301 | 51.79477 | 8516 ft | 291 kts | 105° |
| 2026-05-08 05:00 | 25.31790 | 51.81651 | 9211 ft | 292 kts | 105° |
| 2026-05-08 05:01 | 25.31279 | 51.83830 | 9913 ft | 294 kts | 105° |
| 2026-05-08 05:01 | 25.30760 | 51.86042 | 10387 ft | 303 kts | 105° |
| 2026-05-08 05:01 | 25.30216 | 51.88359 | 10651 ft | 320 kts | 105° |
| 2026-05-08 05:01 | 25.29640 | 51.90801 | 10902 ft | 336 kts | 105° |
| 2026-05-08 05:02 | 25.29037 | 51.93359 | 11140 ft | 351 kts | 105° |
| 2026-05-08 05:02 | 25.28417 | 51.95986 | 11376 ft | 364 kts | 105° |
| 2026-05-08 05:02 | 25.27767 | 51.98739 | 11629 ft | 376 kts | 105° |
| 2026-05-08 05:02 | 25.27103 | 52.01551 | 12045 ft | 381 kts | 105° |
| 2026-05-08 05:03 | 25.26430 | 52.04395 | 12549 ft | 383 kts | 105° |
| 2026-05-08 05:03 | 25.25753 | 52.07254 | 13031 ft | 386 kts | 105° |
| 2026-05-08 05:03 | 25.25071 | 52.10136 | 13520 ft | 389 kts | 105° |
| 2026-05-08 05:03 | 25.24392 | 52.13030 | 13983 ft | 390 kts | 106° |
| 2026-05-08 05:04 | 25.23701 | 52.15942 | 14403 ft | 393 kts | 106° |
| 2026-05-08 05:04 | 25.23000 | 52.18887 | 14827 ft | 396 kts | 107° |
| 2026-05-08 05:04 | 25.22304 | 52.21840 | 15256 ft | 399 kts | 106° |
| 2026-05-08 05:04 | 25.21598 | 52.24812 | 15686 ft | 401 kts | 106° |
| 2026-05-08 05:05 | 25.20888 | 52.27801 | 16107 ft | 404 kts | 107° |
| 2026-05-08 05:05 | 25.20176 | 52.30773 | 16526 ft | 407 kts | 107° |
| 2026-05-08 05:05 | 25.19449 | 52.33800 | 16962 ft | 409 kts | 107° |
| 2026-05-08 05:05 | 25.18716 | 52.36848 | 17397 ft | 412 kts | 107° |
| 2026-05-08 05:06 | 25.17981 | 52.39910 | 17826 ft | 414 kts | 107° |
| 2026-05-08 05:06 | 25.17241 | 52.42991 | 18243 ft | 417 kts | 107° |
| 2026-05-08 05:06 | 25.16493 | 52.46110 | 18600 ft | 420 kts | 107° |
| 2026-05-08 05:06 | 25.15742 | 52.49236 | 18932 ft | 424 kts | 107° |
| 2026-05-08 05:07 | 25.14984 | 52.52390 | 19277 ft | 427 kts | 107° |
| 2026-05-08 05:07 | 25.14220 | 52.55569 | 19634 ft | 430 kts | 107° |
| 2026-05-08 05:07 | 25.13285 | 52.58705 | 19981 ft | 431 kts | 115° |
| 2026-05-08 05:07 | 25.12087 | 52.61744 | 20346 ft | 433 kts | 116° |
| 2026-05-08 05:08 | 25.10794 | 52.64755 | 20706 ft | 436 kts | 118° |
| 2026-05-08 05:08 | 25.09441 | 52.67762 | 21056 ft | 439 kts | 119° |
| 2026-05-08 05:08 | 25.08060 | 52.70771 | 21408 ft | 442 kts | 119° |
| 2026-05-08 05:08 | 25.06666 | 52.73810 | 21776 ft | 445 kts | 118° |
| 2026-05-08 05:09 | 25.05519 | 52.77001 | 22130 ft | 451 kts | 110° |
| 2026-05-08 05:09 | 25.04605 | 52.80328 | 22468 ft | 455 kts | 108° |
| 2026-05-08 05:09 | 25.03784 | 52.83704 | 22825 ft | 458 kts | 107° |
| 2026-05-08 05:09 | 25.03007 | 52.87125 | 23159 ft | 462 kts | 106° |
| 2026-05-08 05:10 | 25.02247 | 52.90577 | 23486 ft | 465 kts | 106° |
| 2026-05-08 05:10 | 25.00708 | 52.97548 | 24046 ft | 470 kts | 106° |
| 2026-05-08 05:10 | 24.99933 | 53.01009 | 24346 ft | 473 kts | 106° |
| 2026-05-08 05:11 | 24.99136 | 53.04535 | 24658 ft | 475 kts | 106° |
| 2026-05-08 05:11 | 24.98330 | 53.08083 | 24971 ft | 478 kts | 106° |
| 2026-05-08 05:11 | 24.97514 | 53.11650 | 25302 ft | 481 kts | 107° |
| 2026-05-08 05:11 | 24.96689 | 53.15232 | 25641 ft | 484 kts | 107° |
| 2026-05-08 05:12 | 24.96138 | 53.17619 | 25867 ft | 486 kts | 107° |
| 2026-05-08 05:12 | 24.95299 | 53.21242 | 26212 ft | 489 kts | 107° |
| 2026-05-08 05:12 | 24.94458 | 53.24880 | 26559 ft | 492 kts | 107° |
| 2026-05-08 05:12 | 24.93610 | 53.28544 | 26903 ft | 495 kts | 107° |
| 2026-05-08 05:13 | 24.92757 | 53.32228 | 27240 ft | 498 kts | 107° |
| 2026-05-08 05:13 | 24.91900 | 53.35932 | 27580 ft | 501 kts | 107° |
| 2026-05-08 05:13 | 24.91034 | 53.39668 | 27919 ft | 504 kts | 107° |
| 2026-05-08 05:13 | 24.90160 | 53.43419 | 28252 ft | 507 kts | 107° |
| 2026-05-08 05:14 | 24.89200 | 53.47162 | 28567 ft | 509 kts | 109° |
| 2026-05-08 05:14 | 24.88164 | 53.50906 | 28883 ft | 512 kts | 109° |
| 2026-05-08 05:14 | 24.87098 | 53.54659 | 29191 ft | 515 kts | 110° |
| 2026-05-08 05:14 | 24.86026 | 53.58433 | 29496 ft | 518 kts | 109° |
| 2026-05-08 05:15 | 24.84957 | 53.62233 | 29786 ft | 520 kts | 109° |
| 2026-05-08 05:15 | 24.83893 | 53.66053 | 30039 ft | 523 kts | 109° |
| 2026-05-08 05:15 | 24.82833 | 53.69887 | 30292 ft | 525 kts | 109° |
| 2026-05-08 05:15 | 24.81774 | 53.73734 | 30558 ft | 526 kts | 109° |
| 2026-05-08 05:16 | 24.80726 | 53.77552 | 30910 ft | 525 kts | 109° |
| 2026-05-08 05:16 | 24.79672 | 53.81389 | 31310 ft | 523 kts | 109° |
| 2026-05-08 05:16 | 24.78622 | 53.85208 | 31704 ft | 521 kts | 109° |
| 2026-05-08 05:16 | 24.77571 | 53.89024 | 32062 ft | 520 kts | 110° |
| 2026-05-08 05:17 | 24.76545 | 53.92853 | 32416 ft | 520 kts | 107° |
| 2026-05-08 05:17 | 24.75865 | 53.96767 | 32756 ft | 522 kts | 99° |
| 2026-05-08 05:17 | 24.75707 | 54.00765 | 33081 ft | 525 kts | 90° |
| 2026-05-08 05:17 | 24.76134 | 54.04751 | 33379 ft | 527 kts | 80° |
| 2026-05-08 05:18 | 24.77047 | 54.08659 | 33718 ft | 528 kts | 76° |
| 2026-05-08 05:18 | 24.78104 | 54.12528 | 34011 ft | 527 kts | 74° |
| 2026-05-08 05:18 | 24.79218 | 54.16371 | 34260 ft | 527 kts | 73° |
| 2026-05-08 05:18 | 24.80352 | 54.20214 | 34510 ft | 527 kts | 73° |
| 2026-05-08 05:19 | 24.81479 | 54.24049 | 34759 ft | 526 kts | 73° |
| 2026-05-08 05:19 | 24.83693 | 54.31704 | 34854 ft | 530 kts | 74° |
| 2026-05-08 05:20 | 24.85899 | 54.39461 | 34858 ft | 530 kts | 74° |
| 2026-05-08 05:20 | 24.88094 | 54.47212 | 34856 ft | 530 kts | 74° |
| 2026-05-08 05:21 | 24.90279 | 54.54970 | 34854 ft | 530 kts | 74° |
| 2026-05-08 05:21 | 24.92465 | 54.62741 | 34855 ft | 530 kts | 74° |
| 2026-05-08 05:22 | 24.94187 | 54.70621 | 34850 ft | 528 kts | 79° |
| 2026-05-08 05:22 | 24.95702 | 54.78549 | 34856 ft | 528 kts | 80° |
| 2026-05-08 05:23 | 24.97186 | 54.86482 | 34860 ft | 528 kts | 80° |
| 2026-05-08 05:23 | 24.98674 | 54.94414 | 34860 ft | 528 kts | 80° |
| 2026-05-08 05:24 | 25.00154 | 55.02297 | 34856 ft | 528 kts | 80° |
| 2026-05-08 05:24 | 25.01642 | 55.10232 | 34854 ft | 528 kts | 80° |
| 2026-05-08 05:25 | 25.03126 | 55.18165 | 34862 ft | 528 kts | 80° |
| 2026-05-08 05:25 | 25.04614 | 55.26109 | 34854 ft | 528 kts | 80° |
| 2026-05-08 05:26 | 25.06095 | 55.34044 | 34839 ft | 528 kts | 80° |
| 2026-05-08 05:26 | 25.07571 | 55.41979 | 34836 ft | 528 kts | 80° |
| 2026-05-08 05:27 | 25.09045 | 55.49923 | 34837 ft | 528 kts | 80° |
| 2026-05-08 05:27 | 25.10506 | 55.57820 | 34838 ft | 528 kts | 80° |
| 2026-05-08 05:28 | 25.11970 | 55.65777 | 34841 ft | 528 kts | 80° |
| 2026-05-08 05:28 | 25.13427 | 55.73731 | 34833 ft | 528 kts | 80° |
| 2026-05-08 05:29 | 25.14920 | 55.81677 | 34834 ft | 529 kts | 79° |
| 2026-05-08 05:29 | 25.16554 | 55.89542 | 34826 ft | 529 kts | 78° |
| 2026-05-08 05:30 | 25.18214 | 55.97453 | 34816 ft | 529 kts | 78° |
| 2026-05-08 05:30 | 25.19842 | 56.05367 | 34799 ft | 528 kts | 78° |
| 2026-05-08 05:31 | 25.20385 | 56.13396 | 34793 ft | 523 kts | 97° |
| 2026-05-08 05:31 | 25.19769 | 56.17332 | 34791 ft | 519 kts | 108° |
| 2026-05-08 05:31 | 25.18729 | 56.21141 | 34792 ft | 518 kts | 111° |
| 2026-05-08 05:32 | 25.16357 | 56.28645 | 34794 ft | 518 kts | 112° |
| 2026-05-08 05:32 | 25.13892 | 56.36128 | 34792 ft | 518 kts | 112° |
| 2026-05-08 05:33 | 25.11457 | 56.43610 | 34792 ft | 518 kts | 112° |
| 2026-05-08 05:33 | 25.09043 | 56.51104 | 34817 ft | 517 kts | 112° |
| 2026-05-08 05:33 | 25.07841 | 56.54838 | 35094 ft | 515 kts | 112° |
| 2026-05-08 05:34 | 25.06585 | 56.58472 | 35440 ft | 512 kts | 114° |
| 2026-05-08 05:34 | 25.05238 | 56.62100 | 35732 ft | 510 kts | 115° |
| 2026-05-08 05:34 | 25.03863 | 56.65702 | 35990 ft | 509 kts | 115° |
| 2026-05-08 05:34 | 25.02485 | 56.69299 | 36228 ft | 508 kts | 115° |
| 2026-05-08 05:35 | 25.01120 | 56.72887 | 36484 ft | 508 kts | 115° |
| 2026-05-08 05:35 | 24.99765 | 56.76481 | 36725 ft | 507 kts | 115° |
| 2026-05-08 05:35 | 24.98411 | 56.80098 | 36814 ft | 510 kts | 115° |
| 2026-05-08 05:36 | 24.95711 | 56.87350 | 36813 ft | 511 kts | 115° |
| 2026-05-08 05:36 | 24.93036 | 56.94541 | 36818 ft | 510 kts | 115° |
| 2026-05-08 05:37 | 24.90339 | 57.01775 | 36822 ft | 510 kts | 115° |
| 2026-05-08 05:37 | 24.87633 | 57.09012 | 36820 ft | 510 kts | 115° |
| 2026-05-08 05:38 | 24.84930 | 57.16228 | 36817 ft | 510 kts | 115° |
| 2026-05-08 05:38 | 24.82220 | 57.23452 | 36820 ft | 510 kts | 115° |
| 2026-05-08 05:39 | 24.79506 | 57.30673 | 36819 ft | 510 kts | 115° |
| 2026-05-08 05:39 | 24.76788 | 57.37892 | 36823 ft | 510 kts | 115° |
| 2026-05-08 05:40 | 24.74068 | 57.45105 | 36815 ft | 510 kts | 115° |
| 2026-05-08 05:40 | 24.71363 | 57.52266 | 36820 ft | 510 kts | 114° |
| 2026-05-08 05:41 | 24.68640 | 57.59462 | 36819 ft | 510 kts | 114° |
| 2026-05-08 05:41 | 24.65913 | 57.66658 | 36821 ft | 510 kts | 115° |
| 2026-05-08 05:42 | 24.63187 | 57.73838 | 37139 ft | 507 kts | 115° |
| 2026-05-08 05:42 | 24.61832 | 57.77406 | 37417 ft | 505 kts | 115° |
| 2026-05-08 05:42 | 24.60476 | 57.80971 | 37646 ft | 504 kts | 115° |
| 2026-05-08 05:42 | 24.59123 | 57.84521 | 37850 ft | 504 kts | 115° |
| 2026-05-08 05:43 | 24.57769 | 57.88072 | 38055 ft | 504 kts | 115° |
| 2026-05-08 05:43 | 24.56416 | 57.91619 | 38242 ft | 503 kts | 115° |
| 2026-05-08 05:43 | 24.55062 | 57.95164 | 38419 ft | 503 kts | 115° |
| 2026-05-08 05:43 | 24.53709 | 57.98706 | 38591 ft | 502 kts | 115° |
| 2026-05-08 05:44 | 24.52356 | 58.02242 | 38714 ft | 502 kts | 115° |
| 2026-05-08 05:44 | 24.49636 | 58.09344 | 38812 ft | 506 kts | 115° |
| 2026-05-08 05:45 | 24.46915 | 58.16436 | 38813 ft | 507 kts | 115° |
| 2026-05-08 05:45 | 24.44176 | 58.23569 | 38811 ft | 506 kts | 115° |
| 2026-05-08 05:46 | 24.41436 | 58.30689 | 38809 ft | 506 kts | 115° |
| 2026-05-08 05:46 | 24.38694 | 58.37803 | 38810 ft | 506 kts | 115° |
| 2026-05-08 05:47 | 24.35950 | 58.44912 | 38808 ft | 506 kts | 115° |
| 2026-05-08 05:47 | 24.33201 | 58.52021 | 38808 ft | 506 kts | 115° |
| 2026-05-08 05:48 | 24.30452 | 58.59121 | 38805 ft | 506 kts | 115° |
| 2026-05-08 05:48 | 24.27695 | 58.66228 | 38810 ft | 506 kts | 115° |
| 2026-05-08 05:49 | 24.24936 | 58.73327 | 38802 ft | 505 kts | 115° |
| 2026-05-08 05:49 | 24.22196 | 58.80368 | 38795 ft | 505 kts | 115° |
| 2026-05-08 05:50 | 24.19438 | 58.87443 | 38811 ft | 505 kts | 115° |
| 2026-05-08 05:50 | 24.16676 | 58.94518 | 38798 ft | 505 kts | 115° |
| 2026-05-08 05:51 | 24.13914 | 59.01581 | 38801 ft | 505 kts | 115° |
| 2026-05-08 05:51 | 24.11148 | 59.08643 | 38796 ft | 504 kts | 115° |
| 2026-05-08 05:52 | 24.08381 | 59.15696 | 38800 ft | 504 kts | 115° |
| 2026-05-08 05:52 | 24.05611 | 59.22745 | 38794 ft | 504 kts | 115° |
| 2026-05-08 05:53 | 24.02855 | 59.29746 | 38791 ft | 504 kts | 115° |
| 2026-05-08 05:53 | 24.00103 | 59.36800 | 38803 ft | 504 kts | 114° |
| 2026-05-08 05:54 | 23.97478 | 59.43914 | 38798 ft | 504 kts | 113° |
| 2026-05-08 05:54 | 23.94877 | 59.51027 | 38787 ft | 504 kts | 113° |
| 2026-05-08 05:55 | 23.92256 | 59.58125 | 38786 ft | 504 kts | 114° |
| 2026-05-08 05:55 | 23.89618 | 59.65222 | 38787 ft | 504 kts | 114° |
| 2026-05-08 05:56 | 23.86971 | 59.72318 | 38787 ft | 504 kts | 114° |
| 2026-05-08 05:56 | 23.84339 | 59.79368 | 38787 ft | 504 kts | 114° |
| 2026-05-08 05:57 | 23.81696 | 59.86458 | 38795 ft | 504 kts | 114° |
| 2026-05-08 05:57 | 23.79045 | 59.93541 | 38789 ft | 504 kts | 114° |
| 2026-05-08 05:58 | 23.76390 | 60.00621 | 38788 ft | 504 kts | 114° |
| 2026-05-08 05:58 | 23.73733 | 60.07701 | 38788 ft | 503 kts | 114° |
| 2026-05-08 05:59 | 23.71527 | 60.13572 | 38789 ft | 503 kts | 114° |
| 2026-05-08 05:59 | 23.68869 | 60.20635 | 38791 ft | 503 kts | 114° |
| 2026-05-08 06:00 | 23.66204 | 60.27705 | 38789 ft | 503 kts | 114° |
| 2026-05-08 06:00 | 23.63539 | 60.34765 | 38795 ft | 503 kts | 114° |
| 2026-05-08 06:01 | 23.60871 | 60.41821 | 38793 ft | 503 kts | 114° |
| 2026-05-08 06:01 | 23.58214 | 60.48837 | 38798 ft | 503 kts | 114° |
| 2026-05-08 06:02 | 23.55538 | 60.55891 | 38797 ft | 503 kts | 114° |
| 2026-05-08 06:02 | 23.52858 | 60.62942 | 38800 ft | 503 kts | 114° |
| 2026-05-08 06:03 | 23.50176 | 60.69991 | 38792 ft | 503 kts | 114° |
| 2026-05-08 06:03 | 23.47489 | 60.77040 | 38802 ft | 503 kts | 114° |
| 2026-05-08 06:04 | 23.44804 | 60.84073 | 38804 ft | 503 kts | 114° |
| 2026-05-08 06:04 | 23.42127 | 60.91075 | 38804 ft | 503 kts | 114° |
| 2026-05-08 06:05 | 23.39427 | 60.98125 | 38798 ft | 504 kts | 114° |
| 2026-05-08 06:05 | 23.36727 | 61.05163 | 38802 ft | 504 kts | 114° |
| 2026-05-08 06:06 | 23.34026 | 61.12195 | 38804 ft | 504 kts | 114° |
| 2026-05-08 06:06 | 23.31318 | 61.19230 | 38803 ft | 504 kts | 114° |
| 2026-05-08 06:07 | 23.28386 | 61.26102 | 38806 ft | 503 kts | 118° |
| 2026-05-08 06:07 | 23.25260 | 61.32908 | 38799 ft | 503 kts | 118° |
| 2026-05-08 06:08 | 23.22153 | 61.39740 | 38806 ft | 503 kts | 117° |
| 2026-05-08 06:08 | 23.19085 | 61.46585 | 38805 ft | 503 kts | 117° |
| 2026-05-08 06:09 | 23.16024 | 61.53445 | 38807 ft | 504 kts | 117° |
| 2026-05-08 06:09 | 23.12983 | 61.60253 | 38811 ft | 504 kts | 117° |
| 2026-05-08 06:10 | 23.09918 | 61.67099 | 38810 ft | 504 kts | 117° |
| 2026-05-08 06:10 | 23.06846 | 61.73948 | 38813 ft | 504 kts | 117° |
| 2026-05-08 06:11 | 23.03775 | 61.80799 | 38812 ft | 504 kts | 117° |
| 2026-05-08 06:11 | 23.00696 | 61.87638 | 38817 ft | 504 kts | 117° |
| 2026-05-08 06:12 | 22.97615 | 61.94474 | 38813 ft | 504 kts | 117° |
| 2026-05-08 06:12 | 22.94533 | 62.01306 | 38812 ft | 504 kts | 117° |
| 2026-05-08 06:13 | 22.91443 | 62.08148 | 38813 ft | 504 kts | 117° |
| 2026-05-08 06:13 | 22.88369 | 62.14946 | 38813 ft | 504 kts | 117° |
| 2026-05-08 06:14 | 22.85273 | 62.21782 | 38818 ft | 504 kts | 117° |
| 2026-05-08 06:14 | 22.82174 | 62.28615 | 38817 ft | 505 kts | 117° |
| 2026-05-08 06:15 | 22.79074 | 62.35440 | 38814 ft | 505 kts | 117° |
| 2026-05-08 06:15 | 22.75991 | 62.42219 | 38821 ft | 505 kts | 117° |
| 2026-05-08 06:16 | 22.72885 | 62.49040 | 38820 ft | 505 kts | 117° |
| 2026-05-08 06:16 | 22.69773 | 62.55864 | 38824 ft | 505 kts | 117° |
| 2026-05-08 06:17 | 22.65098 | 62.66096 | 38823 ft | 505 kts | 117° |
| 2026-05-08 06:17 | 22.61972 | 62.72929 | 38821 ft | 506 kts | 117° |
| 2026-05-08 06:18 | 22.58859 | 62.79722 | 38825 ft | 506 kts | 117° |
| 2026-05-08 06:18 | 22.55727 | 62.86548 | 38825 ft | 506 kts | 118° |
| 2026-05-08 06:19 | 22.52587 | 62.93380 | 38825 ft | 506 kts | 118° |
| 2026-05-08 06:19 | 22.49443 | 63.00213 | 38833 ft | 507 kts | 117° |
| 2026-05-08 06:20 | 22.46300 | 63.07034 | 38827 ft | 507 kts | 118° |
| 2026-05-08 06:20 | 22.43175 | 63.13818 | 38837 ft | 507 kts | 117° |
| 2026-05-08 06:21 | 22.40097 | 63.20686 | 38836 ft | 508 kts | 117° |
| 2026-05-08 06:21 | 22.37042 | 63.27570 | 38829 ft | 508 kts | 117° |
| 2026-05-08 06:22 | 22.33982 | 63.34428 | 38834 ft | 508 kts | 117° |
| 2026-05-08 06:22 | 22.30903 | 63.41296 | 38835 ft | 508 kts | 117° |
| 2026-05-08 06:23 | 22.27817 | 63.48163 | 38833 ft | 508 kts | 117° |
| 2026-05-08 06:23 | 22.24724 | 63.55036 | 38838 ft | 508 kts | 117° |
| 2026-05-08 06:24 | 22.21630 | 63.61905 | 38841 ft | 509 kts | 117° |
| 2026-05-08 06:24 | 22.18535 | 63.68766 | 38840 ft | 509 kts | 117° |
| 2026-05-08 06:25 | 22.15427 | 63.75645 | 38842 ft | 509 kts | 117° |
| 2026-05-08 06:25 | 22.12323 | 63.82507 | 38841 ft | 509 kts | 117° |
| 2026-05-08 06:26 | 22.09214 | 63.89371 | 38843 ft | 509 kts | 117° |
| 2026-05-08 06:26 | 22.06115 | 63.96203 | 38842 ft | 509 kts | 117° |
| 2026-05-08 06:27 | 22.03000 | 64.03063 | 38841 ft | 509 kts | 117° |
| 2026-05-08 06:27 | 21.99883 | 64.09917 | 38847 ft | 509 kts | 117° |
| 2026-05-08 06:28 | 21.96761 | 64.16773 | 38846 ft | 509 kts | 117° |
| 2026-05-08 06:28 | 21.93652 | 64.23590 | 38852 ft | 510 kts | 117° |
| 2026-05-08 06:29 | 21.90510 | 64.30469 | 38848 ft | 510 kts | 117° |
| 2026-05-08 06:29 | 21.87376 | 64.37323 | 38849 ft | 510 kts | 117° |
| 2026-05-08 06:30 | 21.84257 | 64.44137 | 38850 ft | 510 kts | 117° |
| 2026-05-08 06:30 | 21.81115 | 64.50990 | 38854 ft | 510 kts | 117° |
| 2026-05-08 06:31 | 21.77968 | 64.57843 | 38855 ft | 510 kts | 117° |
| 2026-05-08 06:31 | 21.74839 | 64.64649 | 38855 ft | 510 kts | 117° |
| 2026-05-08 06:32 | 21.71689 | 64.71492 | 38857 ft | 510 kts | 117° |
| 2026-05-08 06:32 | 21.68530 | 64.78334 | 38859 ft | 510 kts | 117° |
| 2026-05-08 06:33 | 21.65389 | 64.85142 | 38859 ft | 510 kts | 117° |
| 2026-05-08 06:33 | 21.62232 | 64.91982 | 38858 ft | 510 kts | 117° |
| 2026-05-08 06:34 | 21.59069 | 64.98818 | 38863 ft | 511 kts | 117° |
| 2026-05-08 06:34 | 21.55901 | 65.05656 | 38861 ft | 510 kts | 117° |
| 2026-05-08 06:35 | 21.52750 | 65.12447 | 38861 ft | 510 kts | 117° |
| 2026-05-08 06:35 | 21.49576 | 65.19279 | 38863 ft | 510 kts | 117° |
| 2026-05-08 06:36 | 21.46400 | 65.26104 | 38863 ft | 510 kts | 117° |
| 2026-05-08 06:36 | 21.43246 | 65.32881 | 38862 ft | 510 kts | 117° |
| 2026-05-08 06:37 | 21.40057 | 65.39692 | 38864 ft | 510 kts | 117° |
| 2026-05-08 06:37 | 21.36873 | 65.46520 | 38864 ft | 510 kts | 117° |
| 2026-05-08 06:38 | 21.33689 | 65.53338 | 38865 ft | 510 kts | 117° |
| 2026-05-08 06:38 | 21.30521 | 65.60107 | 38866 ft | 510 kts | 117° |
| 2026-05-08 06:39 | 21.27330 | 65.66913 | 38867 ft | 510 kts | 117° |
| 2026-05-08 06:39 | 21.24136 | 65.73715 | 38866 ft | 510 kts | 117° |
| 2026-05-08 06:40 | 21.20942 | 65.80512 | 38869 ft | 510 kts | 117° |
| 2026-05-08 06:40 | 21.17746 | 65.87303 | 38869 ft | 510 kts | 117° |
| 2026-05-08 06:41 | 21.14567 | 65.94048 | 38868 ft | 510 kts | 117° |
| 2026-05-08 06:41 | 21.11371 | 66.00824 | 38870 ft | 509 kts | 117° |
| 2026-05-08 06:42 | 21.08254 | 66.07611 | 38871 ft | 510 kts | 116° |
| 2026-05-08 06:42 | 21.05178 | 66.14444 | 38874 ft | 509 kts | 116° |
| 2026-05-08 06:43 | 21.02091 | 66.21273 | 38874 ft | 509 kts | 116° |
| 2026-05-08 06:43 | 20.98989 | 66.28093 | 38873 ft | 509 kts | 116° |
| 2026-05-08 06:44 | 20.95882 | 66.34904 | 38872 ft | 509 kts | 116° |
| 2026-05-08 06:44 | 20.92789 | 66.41673 | 38874 ft | 509 kts | 116° |
| 2026-05-08 06:45 | 20.89677 | 66.48479 | 38873 ft | 509 kts | 116° |
| 2026-05-08 06:45 | 20.86565 | 66.55275 | 38872 ft | 509 kts | 116° |
| 2026-05-08 06:46 | 20.83449 | 66.62073 | 38873 ft | 509 kts | 116° |
| 2026-05-08 06:46 | 20.80860 | 66.67713 | 38875 ft | 509 kts | 116° |
| 2026-05-08 06:47 | 20.77742 | 66.74498 | 38872 ft | 508 kts | 116° |
| 2026-05-08 06:47 | 20.74625 | 66.81274 | 38877 ft | 508 kts | 116° |
| 2026-05-08 06:48 | 20.71499 | 66.88059 | 38880 ft | 508 kts | 116° |
| 2026-05-08 06:48 | 20.68392 | 66.94793 | 38879 ft | 508 kts | 116° |
| 2026-05-08 06:49 | 20.65267 | 67.01560 | 38879 ft | 508 kts | 116° |
| 2026-05-08 06:49 | 20.62137 | 67.08328 | 38882 ft | 508 kts | 116° |
| 2026-05-08 06:50 | 20.59005 | 67.15094 | 38882 ft | 508 kts | 116° |
| 2026-05-08 06:50 | 20.55873 | 67.21848 | 38883 ft | 508 kts | 116° |
| 2026-05-08 06:51 | 20.52738 | 67.28604 | 38883 ft | 507 kts | 116° |
| 2026-05-08 06:51 | 20.49624 | 67.35304 | 38878 ft | 507 kts | 117° |
| 2026-05-08 06:52 | 20.46485 | 67.42049 | 38879 ft | 507 kts | 116° |
| 2026-05-08 06:52 | 20.43349 | 67.48780 | 38879 ft | 507 kts | 117° |
| 2026-05-08 06:53 | 20.40210 | 67.55511 | 38881 ft | 507 kts | 117° |
| 2026-05-08 06:53 | 20.37067 | 67.62239 | 38881 ft | 506 kts | 117° |
| 2026-05-08 06:54 | 20.33928 | 67.68952 | 38882 ft | 506 kts | 117° |
| 2026-05-08 06:54 | 20.30779 | 67.75678 | 38879 ft | 506 kts | 117° |
| 2026-05-08 06:55 | 20.27653 | 67.82347 | 38884 ft | 506 kts | 117° |
| 2026-05-08 06:55 | 20.24502 | 67.89061 | 38885 ft | 506 kts | 117° |
| 2026-05-08 06:56 | 20.21346 | 67.95779 | 38882 ft | 506 kts | 117° |
| 2026-05-08 06:56 | 20.18191 | 68.02484 | 38883 ft | 506 kts | 117° |
| 2026-05-08 06:57 | 20.15036 | 68.09182 | 38882 ft | 506 kts | 117° |
| 2026-05-08 06:57 | 20.11895 | 68.15842 | 38882 ft | 506 kts | 117° |
| 2026-05-08 06:58 | 20.08730 | 68.22545 | 38879 ft | 507 kts | 117° |
| 2026-05-08 06:58 | 20.05566 | 68.29239 | 38882 ft | 507 kts | 117° |
| 2026-05-08 06:59 | 20.02396 | 68.35935 | 38882 ft | 507 kts | 117° |
| 2026-05-08 06:59 | 19.99223 | 68.42632 | 38882 ft | 507 kts | 117° |
| 2026-05-08 07:00 | 19.96046 | 68.49329 | 38884 ft | 507 kts | 117° |
| 2026-05-08 07:00 | 19.92866 | 68.56023 | 38884 ft | 507 kts | 117° |
| 2026-05-08 07:01 | 19.89683 | 68.62715 | 38877 ft | 507 kts | 117° |
| 2026-05-08 07:01 | 19.86500 | 68.69402 | 38885 ft | 507 kts | 117° |
| 2026-05-08 07:02 | 19.83308 | 68.76097 | 38891 ft | 508 kts | 117° |
| 2026-05-08 07:02 | 19.80116 | 68.82786 | 38881 ft | 507 kts | 117° |
| 2026-05-08 07:03 | 19.76921 | 68.89472 | 38881 ft | 508 kts | 117° |
| 2026-05-08 07:03 | 19.73745 | 68.96110 | 38883 ft | 508 kts | 117° |
| 2026-05-08 07:04 | 19.70545 | 69.02791 | 38881 ft | 508 kts | 117° |
| 2026-05-08 07:04 | 19.67342 | 69.09471 | 38882 ft | 508 kts | 117° |
| 2026-05-08 07:05 | 19.64137 | 69.16147 | 38877 ft | 508 kts | 117° |
| 2026-05-08 07:05 | 19.60928 | 69.22823 | 38877 ft | 508 kts | 118° |
| 2026-05-08 07:06 | 19.57714 | 69.29503 | 38874 ft | 508 kts | 118° |
| 2026-05-08 07:06 | 19.54501 | 69.36176 | 38875 ft | 508 kts | 117° |
| 2026-05-08 07:07 | 19.51387 | 69.42902 | 38873 ft | 508 kts | 116° |
| 2026-05-08 07:07 | 19.48330 | 69.49660 | 38872 ft | 508 kts | 116° |
| 2026-05-08 07:08 | 19.45255 | 69.56414 | 38875 ft | 509 kts | 116° |
| 2026-05-08 07:08 | 19.42165 | 69.63156 | 38870 ft | 509 kts | 117° |
| 2026-05-08 07:09 | 19.39083 | 69.69856 | 38871 ft | 509 kts | 117° |
| 2026-05-08 07:09 | 19.35975 | 69.76606 | 38870 ft | 509 kts | 117° |
| 2026-05-08 07:10 | 19.32871 | 69.83341 | 38870 ft | 509 kts | 117° |
| 2026-05-08 07:10 | 19.29762 | 69.90077 | 38870 ft | 509 kts | 117° |
| 2026-05-08 07:11 | 19.26655 | 69.96804 | 38870 ft | 509 kts | 117° |
| 2026-05-08 07:11 | 19.23540 | 70.03540 | 38871 ft | 509 kts | 117° |